4VG2 weather

Cool Water Airport
Ashland, Virginia, United States

Public forecast

Using degrees Fahrenheit for public forecast. Weather courtesy of forecast.io.

Closest aviation weather report (METAR) to Cool Water Airport

Closest report is Hanover County Municipal Airport, 10.4 nm (19.2 km) SSE. Retrieved 2019/10/22 12:01 UTC (20 minutes ago):

KOFP 221201Z AUTO 00000KT 2 1/2SM BR OVC004 14/13 A3002 RMK AO2 T01390128

Closest aviation forecast (TAF) to Cool Water Airport

Closest forecast is Richmond International Airport, 23.8 nm (44.0 km) SSE. Retrieved 2019/10/22 12:22 UTC (0 seconds ago):

TAF KRIC 221120Z 2212/2312 15005KT P6SM OVC004 FM221400 16006KT P6SM VCSH OVC007 FM221900 15009KT P6SM -SHRA OVC015 FM230000 25006KT P6SM SCT004 BKN007 FM230200 29005KT P6SM OVC020 FM230500 30005KT P6SM BKN150